Wadebridge, United Kingdom
Current Conditions -  °F | °C
As of 3:20 PM on Saturday 22 Nov 2014 (Local Time) from EGHQ Reporting Station
Few Clouds Few Clouds  
Wind Chill: 11°   Ceiling: Unl
Heat Index: 11°   Visibility: 6mi
Dew Point:   Wind: 7mph
Humidity: 82%   Direction: 260°W
Pressure: 29.91"   Gusts: NA
Location:  50.52°N, 4.84°W
Report Text: EGHQ 221520Z 26006KT 9999 FEW015 11/08 Q1013
Loading
Personal Weather Stations






























Interactive Weather Map New forecast layout! Learn more

10-Day Weather Forecast

Advertisements
Track Severe Weather on mobile